createdAt,value
2018-11-25T00:00:30.214Z,2.13
2018-11-25T00:02:58.866Z,2.37
2018-11-25T00:05:27.619Z,2.47
2018-11-25T00:07:56.614Z,2.30
2018-11-25T00:10:25.572Z,2.27
2018-11-25T00:12:54.908Z,2.60
2018-11-25T00:15:24.686Z,2.23
2018-11-25T00:17:53.732Z,2.33
2018-11-25T00:20:22.426Z,2.23
2018-11-25T00:22:52.159Z,1.97
2018-11-25T00:25:21.032Z,1.87
2018-11-25T00:27:50.056Z,2.10
2018-11-25T00:30:19.130Z,2.10
2018-11-25T00:32:48.479Z,2.00
2018-11-25T00:35:17.287Z,2.23
2018-11-25T00:37:48.533Z,1.83
2018-11-25T00:40:15.235Z,2.30
2018-11-25T00:42:44.629Z,1.90
2018-11-25T00:45:17.866Z,2.23
2018-11-25T00:47:46.985Z,2.00
2018-11-25T00:50:15.407Z,1.73
2018-11-25T00:52:44.304Z,2.00
2018-11-25T00:55:13.320Z,2.27
2018-11-25T00:57:42.288Z,2.03
2018-11-25T01:00:12.318Z,2.30
2018-11-25T01:02:41.290Z,2.07
2018-11-25T01:05:10.079Z,2.10
2018-11-25T01:07:39.117Z,2.20
2018-11-25T01:10:10.293Z,1.73
2018-11-25T01:12:39.478Z,2.03
2018-11-25T01:15:09.883Z,1.83
2018-11-25T01:17:39.293Z,2.20
2018-11-25T01:20:13.854Z,1.73
2018-11-25T01:22:43.295Z,2.00
2018-11-25T01:25:11.811Z,1.77
2018-11-25T01:27:41.293Z,1.80
2018-11-25T01:30:14.285Z,1.70
2018-11-25T01:32:43.589Z,1.60
2018-11-25T01:35:12.800Z,2.10
2018-11-25T01:37:41.303Z,2.40
2018-11-25T01:40:11.075Z,1.70
2018-11-25T01:42:40.116Z,1.90
2018-11-25T01:45:10.442Z,1.60
2018-11-25T01:47:39.133Z,2.17
2018-11-25T01:50:09.016Z,1.97
2018-11-25T01:52:38.166Z,1.83
2018-11-25T01:55:07.694Z,1.80
2018-11-25T01:57:36.658Z,1.57
2018-11-25T02:00:07.806Z,2.13
2018-11-25T02:02:36.802Z,1.73
2018-11-25T02:05:05.804Z,1.90
2018-11-25T02:07:34.762Z,1.93
2018-11-25T02:10:05.187Z,1.90
2018-11-25T02:12:34.195Z,1.60
2018-11-25T02:15:02.777Z,2.23
2018-11-25T02:17:31.300Z,2.10
2018-11-25T02:20:00.626Z,1.70
2018-11-25T02:22:29.687Z,1.70
2018-11-25T02:25:00.010Z,1.40
2018-11-25T02:27:29.922Z,1.70
2018-11-25T02:29:58.845Z,1.90
2018-11-25T02:32:27.907Z,2.00
2018-11-25T02:34:56.950Z,1.60
2018-11-25T02:37:27.122Z,1.70
2018-11-25T02:39:55.841Z,1.80
2018-11-25T02:42:25.110Z,1.80
2018-11-25T02:44:54.056Z,1.90
2018-11-25T02:47:23.214Z,1.80
2018-11-25T02:49:52.053Z,1.50
2018-11-25T02:52:20.867Z,1.47
2018-11-25T02:54:51.208Z,1.60
2018-11-25T02:57:24.430Z,1.73
2018-11-25T02:59:53.466Z,1.50
2018-11-25T03:02:22.720Z,2.00
2018-11-25T03:04:51.154Z,1.73
2018-11-25T03:07:20.611Z,1.80
2018-11-25T03:09:49.558Z,1.93
2018-11-25T03:12:18.482Z,1.70
2018-11-25T03:14:47.655Z,1.90
2018-11-25T03:17:16.722Z,1.90
2018-11-25T03:19:45.346Z,1.87
2018-11-25T03:22:14.546Z,1.97
2018-11-25T03:24:43.828Z,2.27
2018-11-25T03:27:13.155Z,1.73
2018-11-25T03:29:42.032Z,2.13
2018-11-25T03:32:10.947Z,2.10
2018-11-25T03:34:39.816Z,2.30
2018-11-25T03:37:08.838Z,2.33
2018-11-25T03:39:37.939Z,1.80
2018-11-25T03:42:07.032Z,1.90
2018-11-25T03:44:36.007Z,2.13
2018-11-25T03:47:04.938Z,2.50
2018-11-25T03:49:33.998Z,1.80
2018-11-25T03:52:02.588Z,2.30
2018-11-25T03:54:31.718Z,2.07
2018-11-25T03:57:00.097Z,1.83
2018-11-25T03:59:29.372Z,2.03
2018-11-25T04:01:57.996Z,2.23
2018-11-25T04:04:27.258Z,2.30
2018-11-25T04:06:56.194Z,2.03
2018-11-25T04:09:25.193Z,1.90
2018-11-25T04:11:53.694Z,2.20
2018-11-25T04:14:23.059Z,1.80
2018-11-25T04:16:51.774Z,1.93
2018-11-25T04:19:21.009Z,1.90
2018-11-25T04:21:50.485Z,1.80
2018-11-25T04:24:19.354Z,1.97
2018-11-25T04:26:48.363Z,1.80
2018-11-25T04:29:18.062Z,1.97
2018-11-25T04:31:46.784Z,1.90
2018-11-25T04:34:16.049Z,2.40
2018-11-25T04:36:45.188Z,1.67
2018-11-25T04:39:13.878Z,1.60
2018-11-25T04:41:43.555Z,1.50
2018-11-25T04:44:13.438Z,2.00
2018-11-25T04:46:42.479Z,2.00
2018-11-25T04:49:10.791Z,1.70
2018-11-25T04:51:39.072Z,1.50
2018-11-25T04:54:08.010Z,1.30
2018-11-25T04:56:37.015Z,1.93
2018-11-25T04:59:06.023Z,1.90
2018-11-25T05:01:35.147Z,1.67
2018-11-25T05:04:04.365Z,1.60
2018-11-25T05:06:33.362Z,1.60
2018-11-25T05:09:02.422Z,1.80
2018-11-25T05:11:31.356Z,1.73
2018-11-25T05:14:00.154Z,1.73
2018-11-25T05:16:28.954Z,1.47
2018-11-25T05:18:58.318Z,2.07
2018-11-25T05:21:27.623Z,1.93
2018-11-25T05:23:56.871Z,1.80
2018-11-25T05:26:25.930Z,1.90
2018-11-25T05:28:55.035Z,1.53
2018-11-25T05:31:24.056Z,2.43
2018-11-25T05:33:53.405Z,1.63
2018-11-25T05:36:22.050Z,1.70
2018-11-25T05:38:51.047Z,1.50
2018-11-25T05:41:19.954Z,1.50
2018-11-25T05:43:48.937Z,1.43
2018-11-25T05:46:17.320Z,2.10
2018-11-25T05:48:46.651Z,1.50
2018-11-25T05:51:15.019Z,1.67
2018-11-25T05:53:44.313Z,1.40
2018-11-25T05:56:12.938Z,1.80
2018-11-25T05:58:42.004Z,1.70
2018-11-25T06:01:11.105Z,1.70
2018-11-25T06:03:39.751Z,1.97
2018-11-25T06:06:09.201Z,2.60
2018-11-25T06:08:37.799Z,1.97
2018-11-25T06:11:06.682Z,2.00
2018-11-25T06:13:35.872Z,1.63
2018-11-25T06:16:04.843Z,1.85
2018-11-25T06:18:34.289Z,1.90
2018-11-25T06:21:02.871Z,2.00
2018-11-25T06:23:32.154Z,1.87
2018-11-25T06:26:00.527Z,1.77
2018-11-25T06:28:29.893Z,1.83
2018-11-25T06:30:58.640Z,1.87
2018-11-25T06:33:27.774Z,2.20
2018-11-25T06:35:56.544Z,1.70
2018-11-25T06:38:25.475Z,1.50
2018-11-25T06:40:54.443Z,1.77
2018-11-25T06:43:24.446Z,2.07
2018-11-25T06:45:53.826Z,2.03
2018-11-25T06:48:22.963Z,1.90
2018-11-25T06:50:52.407Z,2.17
2018-11-25T06:53:21.191Z,1.90
2018-11-25T06:55:49.980Z,2.50
2018-11-25T06:58:19.651Z,1.87
2018-11-25T07:00:52.578Z,2.00
2018-11-25T07:03:21.257Z,2.10
2018-11-25T07:05:50.723Z,1.93
2018-11-25T07:08:20.148Z,2.03
2018-11-25T07:10:49.478Z,1.77
2018-11-25T07:13:18.039Z,1.90
2018-11-25T07:15:47.042Z,2.00
2018-11-25T07:18:15.674Z,1.87
2018-11-25T07:20:44.546Z,1.83
2018-11-25T07:23:13.652Z,1.83
2018-11-25T07:25:43.334Z,1.60
2018-11-25T07:28:18.331Z,1.80
2018-11-25T07:30:41.346Z,1.80
2018-11-25T07:33:10.561Z,1.47
2018-11-25T07:35:39.927Z,1.43
2018-11-25T07:38:09.048Z,2.33
2018-11-25T07:40:37.859Z,2.03
2018-11-25T07:43:07.182Z,1.47
2018-11-25T07:45:36.032Z,1.87
2018-11-25T07:48:05.011Z,1.80
2018-11-25T07:50:33.746Z,1.60
2018-11-25T07:53:03.832Z,1.20
2018-11-25T07:55:32.475Z,1.87
2018-11-25T07:58:01.732Z,1.90
2018-11-25T08:00:30.710Z,1.77
2018-11-25T08:02:59.703Z,1.57
2018-11-25T08:05:28.994Z,1.80
2018-11-25T08:07:57.636Z,2.17
2018-11-25T08:10:26.614Z,1.80
2018-11-25T08:12:56.568Z,1.80
2018-11-25T08:15:25.036Z,1.73
2018-11-25T08:17:53.469Z,1.33
2018-11-25T08:20:22.605Z,2.00
2018-11-25T08:22:51.003Z,2.07
2018-11-25T08:25:20.763Z,1.80
2018-11-25T08:27:50.043Z,1.87
2018-11-25T08:30:19.414Z,1.60
2018-11-25T08:32:49.054Z,1.40
2018-11-25T08:35:18.683Z,1.90
2018-11-25T08:37:47.462Z,1.60
2018-11-25T08:40:16.973Z,1.57
2018-11-25T08:42:45.926Z,1.73
2018-11-25T08:45:14.975Z,1.40
2018-11-25T08:47:43.623Z,1.90
2018-11-25T08:50:13.751Z,1.90
2018-11-25T08:52:42.879Z,1.60
2018-11-25T08:55:17.407Z,1.80
2018-11-25T08:57:46.195Z,2.60
2018-11-25T09:00:18.059Z,2.00
2018-11-25T09:02:47.744Z,2.33
2018-11-25T09:05:16.849Z,1.70
2018-11-25T09:07:45.378Z,1.70
2018-11-25T09:10:14.968Z,2.00
2018-11-25T09:12:44.376Z,1.73
2018-11-25T09:15:14.870Z,1.77
2018-11-25T09:17:43.669Z,1.50
2018-11-25T09:20:17.043Z,1.97
2018-11-25T09:22:45.994Z,1.77
2018-11-25T09:25:15.870Z,1.63
2018-11-25T09:27:44.811Z,1.80
2018-11-25T09:30:21.580Z,1.67
2018-11-25T09:32:50.642Z,1.83
2018-11-25T09:35:19.648Z,1.80
2018-11-25T09:37:48.457Z,1.80
2018-11-25T09:40:19.165Z,2.10
2018-11-25T09:42:48.267Z,2.33
2018-11-25T09:45:17.996Z,2.23
2018-11-25T09:47:47.487Z,1.60
2018-11-25T09:50:16.983Z,1.90
2018-11-25T09:52:47.103Z,1.97
2018-11-25T09:55:16.763Z,1.67
2018-11-25T09:57:49.635Z,2.07
2018-11-25T10:00:19.991Z,1.90
2018-11-25T10:02:49.262Z,1.60
2018-11-25T10:05:18.553Z,2.30
2018-11-25T10:07:47.825Z,1.70
2018-11-25T10:10:17.217Z,1.73
2018-11-25T10:12:45.799Z,1.60
2018-11-25T10:15:18.553Z,2.00
2018-11-25T10:17:47.538Z,1.90
2018-11-25T10:20:24.618Z,2.13
2018-11-25T10:22:53.586Z,2.07
2018-11-25T10:25:22.863Z,2.30
2018-11-25T10:27:52.010Z,2.23
2018-11-25T10:30:21.842Z,2.40
2018-11-25T10:32:51.634Z,2.67
2018-11-25T10:35:20.487Z,2.90
2018-11-25T10:37:49.193Z,2.57
2018-11-25T10:40:19.834Z,2.80
2018-11-25T10:42:49.008Z,2.87
2018-11-25T10:45:18.290Z,2.80
2018-11-25T10:47:47.972Z,2.67
2018-11-25T10:50:17.608Z,2.33
2018-11-25T10:52:46.527Z,2.30
2018-11-25T10:55:16.691Z,2.33
2018-11-25T10:57:46.220Z,2.30
2018-11-25T11:00:21.017Z,2.60
2018-11-25T11:02:53.972Z,2.23
2018-11-25T11:05:28.088Z,2.00
2018-11-25T11:07:56.715Z,2.53
2018-11-25T11:10:25.688Z,2.57
2018-11-25T11:12:54.647Z,2.20
2018-11-25T11:15:23.659Z,1.93
2018-11-25T11:17:52.313Z,2.20
2018-11-25T11:20:21.371Z,1.90
2018-11-25T11:22:50.568Z,2.17
2018-11-25T11:25:19.548Z,2.20
2018-11-25T11:27:48.474Z,2.50
2018-11-25T11:30:17.634Z,2.10
2018-11-25T11:32:48.083Z,2.20
2018-11-25T11:35:17.307Z,1.90
2018-11-25T11:37:46.058Z,1.97
2018-11-25T11:40:15.687Z,1.97
2018-11-25T11:42:44.976Z,2.13
2018-11-25T11:45:14.197Z,2.00
2018-11-25T11:47:43.509Z,1.90
2018-11-25T11:50:13.130Z,1.90
2018-11-25T11:52:42.330Z,1.60
2018-11-25T11:55:11.196Z,1.97
2018-11-25T11:57:39.813Z,2.00
2018-11-25T12:00:10.740Z,2.00
2018-11-25T12:02:39.957Z,2.00
2018-11-25T12:05:09.058Z,2.03
2018-11-25T12:07:37.750Z,1.55
2018-11-25T12:10:08.800Z,2.47
2018-11-25T12:12:37.442Z,1.60
2018-11-25T12:15:08.752Z,1.70
2018-11-25T12:17:37.736Z,1.97
2018-11-25T12:20:07.523Z,1.60
2018-11-25T12:22:37.746Z,1.70
2018-11-25T12:25:07.944Z,1.80
2018-11-25T12:27:37.271Z,1.80
2018-11-25T12:30:07.850Z,2.10
2018-11-25T12:32:36.671Z,2.17
2018-11-25T12:35:05.800Z,1.60
2018-11-25T12:37:36.185Z,1.60
2018-11-25T12:40:03.036Z,1.87
2018-11-25T12:42:32.017Z,1.90
2018-11-25T12:45:00.998Z,1.97
2018-11-25T12:47:29.976Z,1.63
2018-11-25T12:49:58.891Z,1.97
2018-11-25T12:52:27.953Z,1.77
2018-11-25T12:54:56.988Z,2.23
2018-11-25T12:57:26.523Z,2.00
2018-11-25T12:59:55.291Z,2.53
2018-11-25T13:02:24.597Z,1.60
2018-11-25T13:04:53.716Z,2.13
2018-11-25T13:07:22.794Z,2.10
2018-11-25T13:09:52.000Z,1.50
2018-11-25T13:12:20.998Z,1.70
2018-11-25T13:14:49.895Z,2.17
2018-11-25T13:17:18.566Z,1.80
2018-11-25T13:19:47.447Z,1.63
2018-11-25T13:22:16.337Z,2.17
2018-11-25T13:24:45.062Z,1.90
2018-11-25T13:27:14.459Z,1.90
2018-11-25T13:29:43.059Z,2.10
2018-11-25T13:32:11.867Z,1.93
2018-11-25T13:34:40.715Z,1.93
2018-11-25T13:37:09.827Z,2.33
2018-11-25T13:39:38.434Z,2.03
2018-11-25T13:42:07.386Z,2.33
2018-11-25T13:44:41.659Z,1.70
2018-11-25T13:47:10.552Z,2.43
2018-11-25T13:49:40.564Z,1.80
2018-11-25T13:52:10.118Z,2.15
2018-11-25T13:54:39.069Z,1.83
2018-11-25T13:57:07.851Z,1.80
2018-11-25T13:59:36.618Z,1.70
2018-11-25T14:02:05.826Z,1.80
2018-11-25T14:04:34.815Z,2.33
2018-11-25T14:07:03.449Z,1.80
2018-11-25T14:09:32.850Z,2.13
2018-11-25T14:12:02.259Z,2.03
2018-11-25T14:14:31.190Z,2.13
2018-11-25T14:17:00.149Z,1.47
2018-11-25T14:19:28.821Z,1.97
2018-11-25T14:21:57.723Z,1.97
2018-11-25T14:24:26.327Z,2.10
2018-11-25T14:26:56.454Z,1.93
2018-11-25T14:29:25.622Z,1.67
2018-11-25T14:31:55.727Z,2.10
2018-11-25T14:34:24.497Z,2.20
2018-11-25T14:36:54.299Z,1.90
2018-11-25T14:39:23.257Z,2.13
2018-11-25T14:41:52.462Z,2.20
2018-11-25T14:44:21.578Z,2.47
2018-11-25T14:46:50.156Z,2.10
2018-11-25T14:49:19.408Z,2.00
2018-11-25T14:51:48.348Z,1.90
2018-11-25T14:54:17.042Z,2.27
2018-11-25T14:56:46.024Z,2.20
2018-11-25T14:59:15.253Z,2.23
2018-11-25T15:01:44.702Z,2.57
2018-11-25T15:04:13.422Z,1.77
2018-11-25T15:06:42.553Z,2.00
2018-11-25T15:09:11.453Z,2.10
2018-11-25T15:11:40.550Z,2.33
2018-11-25T15:14:10.047Z,1.90
2018-11-25T15:16:38.953Z,1.97
2018-11-25T15:19:07.970Z,2.50
2018-11-25T15:21:36.527Z,1.90
2018-11-25T15:24:05.333Z,1.80
2018-11-25T15:26:34.149Z,1.70
2018-11-25T15:29:03.830Z,1.90
2018-11-25T15:31:32.835Z,2.13
2018-11-25T15:34:01.631Z,1.70
2018-11-25T15:36:30.528Z,2.10
2018-11-25T15:38:59.469Z,2.30
2018-11-25T15:41:28.520Z,2.00
2018-11-25T15:43:57.195Z,2.63
2018-11-25T15:46:26.075Z,2.43
2018-11-25T15:48:54.682Z,2.30
2018-11-25T15:51:23.835Z,2.57
2018-11-25T15:53:53.180Z,2.20
2018-11-25T15:56:22.007Z,2.37
2018-11-25T15:58:50.893Z,2.30
2018-11-25T16:01:19.811Z,2.63
2018-11-25T16:03:49.190Z,2.10
2018-11-25T16:06:23.718Z,2.50
2018-11-25T16:08:52.559Z,2.50
2018-11-25T16:11:23.018Z,2.30
2018-11-25T16:13:52.241Z,2.23
2018-11-25T16:16:21.139Z,2.53
2018-11-25T16:18:50.091Z,2.73
2018-11-25T16:21:18.720Z,2.40
2018-11-25T16:23:47.923Z,2.63
2018-11-25T16:26:19.946Z,2.03
2018-11-25T16:28:50.117Z,2.83
2018-11-25T16:31:19.567Z,2.23
2018-11-25T16:33:47.919Z,2.80
2018-11-25T16:36:16.968Z,2.40
2018-11-25T16:38:45.990Z,2.40
2018-11-25T16:41:14.658Z,2.30
2018-11-25T16:43:43.311Z,2.57
2018-11-25T16:46:12.277Z,2.40
2018-11-25T16:48:41.855Z,2.73
2018-11-25T16:51:10.484Z,2.60
2018-11-25T16:53:39.547Z,2.10
2018-11-25T16:56:08.741Z,2.33
2018-11-25T16:58:37.811Z,2.40
2018-11-25T17:01:10.117Z,3.10
2018-11-25T17:03:35.819Z,2.40
2018-11-25T17:06:04.235Z,2.30
2018-11-25T17:08:33.447Z,2.63
2018-11-25T17:11:02.494Z,2.23
2018-11-25T17:13:32.010Z,2.70
2018-11-25T17:16:01.099Z,2.83
2018-11-25T17:18:30.347Z,3.50
2018-11-25T17:20:59.061Z,2.77
2018-11-25T17:23:28.121Z,2.93
2018-11-25T17:25:56.963Z,2.90
2018-11-25T17:28:25.542Z,2.80
2018-11-25T17:30:54.129Z,3.70
2018-11-25T17:33:23.031Z,3.30
2018-11-25T17:35:52.023Z,3.20
2018-11-25T17:38:21.430Z,2.50
2018-11-25T17:40:50.251Z,3.07
2018-11-25T17:43:21.027Z,3.50
2018-11-25T17:45:49.445Z,3.30
2018-11-25T17:48:18.851Z,3.63
2018-11-25T17:50:47.599Z,3.00
2018-11-25T17:53:20.812Z,3.05
2018-11-25T17:55:46.222Z,3.23
2018-11-25T17:58:15.149Z,2.97
2018-11-25T18:01:02.265Z,3.30
2018-11-25T18:03:32.138Z,2.77
2018-11-25T18:06:01.691Z,3.10
2018-11-25T18:08:31.535Z,2.97
2018-11-25T18:11:00.525Z,3.10
2018-11-25T18:13:30.122Z,3.10
2018-11-25T18:15:59.114Z,3.53
2018-11-25T18:18:31.107Z,3.00
2018-11-25T18:21:02.391Z,3.37
2018-11-25T18:23:31.121Z,2.80
2018-11-25T18:26:02.417Z,2.93
2018-11-25T18:28:31.125Z,3.50
2018-11-25T18:31:00.464Z,3.40
2018-11-25T18:33:29.803Z,2.83
2018-11-25T18:35:58.735Z,3.10
2018-11-25T18:38:28.070Z,2.93
2018-11-25T18:40:57.444Z,3.10
2018-11-25T18:43:26.259Z,2.43
2018-11-25T18:45:59.422Z,2.73
2018-11-25T18:48:24.140Z,2.97
2018-11-25T18:50:53.319Z,2.70
2018-11-25T18:53:22.527Z,3.20
2018-11-25T18:55:50.895Z,2.70
2018-11-25T18:58:20.107Z,2.60
2018-11-25T19:00:54.671Z,2.30
2018-11-25T19:03:23.971Z,3.03
2018-11-25T19:05:53.485Z,2.60
2018-11-25T19:08:22.487Z,2.77
2018-11-25T19:10:51.566Z,2.27
2018-11-25T19:13:20.612Z,2.30
2018-11-25T19:15:49.393Z,2.53
2018-11-25T19:18:18.784Z,2.30
2018-11-25T19:20:48.300Z,2.93
2018-11-25T19:23:18.281Z,2.40
2018-11-25T19:25:46.904Z,2.30
2018-11-25T19:28:16.008Z,3.10
2018-11-25T19:30:45.878Z,2.77
2018-11-25T19:33:14.534Z,2.00
2018-11-25T19:35:43.543Z,2.50
2018-11-25T19:38:12.176Z,2.70
2018-11-25T19:40:41.092Z,2.70
2018-11-25T19:43:10.293Z,2.33
2018-11-25T19:45:40.109Z,2.40
2018-11-25T19:48:08.962Z,2.40
2018-11-25T19:50:38.697Z,2.33
2018-11-25T19:53:08.550Z,2.40
2018-11-25T19:55:38.284Z,2.40
2018-11-25T19:58:07.736Z,2.33
2018-11-25T20:00:37.463Z,2.27
2018-11-25T20:03:06.344Z,2.60
2018-11-25T20:05:35.059Z,2.27
2018-11-25T20:08:04.515Z,2.53
2018-11-25T20:10:33.608Z,2.30
2018-11-25T20:13:02.992Z,2.30
2018-11-25T20:15:32.437Z,2.97
2018-11-25T20:18:01.598Z,2.30
2018-11-25T20:20:30.884Z,2.77
2018-11-25T20:22:59.902Z,2.53
2018-11-25T20:25:28.993Z,2.40
2018-11-25T20:28:00.606Z,2.30
2018-11-25T20:30:31.030Z,2.53
2018-11-25T20:33:05.048Z,2.40
2018-11-25T20:35:33.925Z,2.92
2018-11-25T20:38:08.050Z,2.37
2018-11-25T20:40:37.326Z,2.17
2018-11-25T20:43:06.206Z,2.70
2018-11-25T20:45:40.711Z,2.50
2018-11-25T20:48:10.081Z,2.17
2018-11-25T20:50:39.468Z,2.03
2018-11-25T20:53:13.777Z,2.22
2018-11-25T20:55:43.228Z,2.47
2018-11-25T20:58:12.225Z,2.23
2018-11-25T21:00:41.876Z,2.07
2018-11-25T21:03:11.086Z,1.90
2018-11-25T21:05:39.655Z,1.80
2018-11-25T21:08:08.708Z,2.60
2018-11-25T21:10:38.133Z,2.13
2018-11-25T21:13:07.422Z,1.90
2018-11-25T21:15:36.819Z,1.73
2018-11-25T21:18:06.267Z,2.00
2018-11-25T21:20:35.563Z,1.90
2018-11-25T21:23:04.746Z,2.00
2018-11-25T21:25:33.700Z,1.70
2018-11-25T21:28:02.878Z,2.03
2018-11-25T21:30:31.986Z,2.20
2018-11-25T21:33:01.182Z,1.93
2018-11-25T21:35:29.871Z,1.93
2018-11-25T21:37:58.447Z,2.37
2018-11-25T21:40:27.429Z,2.20
2018-11-25T21:42:56.455Z,2.30
2018-11-25T21:45:24.955Z,1.97
2018-11-25T21:47:55.190Z,2.33
2018-11-25T21:50:24.998Z,2.23
2018-11-25T21:52:53.816Z,2.42
2018-11-25T21:55:26.715Z,2.07
2018-11-25T21:57:56.036Z,2.10
2018-11-25T22:00:25.686Z,1.82
2018-11-25T22:02:54.819Z,1.97
2018-11-25T22:05:24.973Z,1.83
2018-11-25T22:07:52.199Z,1.90
2018-11-25T22:10:22.600Z,2.30
2018-11-25T22:12:50.494Z,1.80
2018-11-25T22:15:23.704Z,1.67
2018-11-25T22:17:52.565Z,1.80
2018-11-25T22:20:21.757Z,2.00
2018-11-25T22:22:50.631Z,2.13
2018-11-25T22:25:20.668Z,2.03
2018-11-25T22:27:49.326Z,1.80
2018-11-25T22:30:19.071Z,1.80
2018-11-25T22:32:47.822Z,2.07
2018-11-25T22:35:17.850Z,2.00
2018-11-25T22:37:46.182Z,1.93
2018-11-25T22:40:16.191Z,2.40
2018-11-25T22:42:45.899Z,1.77
2018-11-25T22:45:15.730Z,2.23
2018-11-25T22:47:44.312Z,1.90
2018-11-25T22:50:14.936Z,2.00
2018-11-25T22:52:44.102Z,2.17
2018-11-25T22:55:14.039Z,2.00
2018-11-25T22:57:42.674Z,1.93
2018-11-25T23:00:17.283Z,1.80
2018-11-25T23:02:45.882Z,2.00
2018-11-25T23:05:20.081Z,1.63
2018-11-25T23:07:48.999Z,1.87
2018-11-25T23:10:18.063Z,1.80
2018-11-25T23:12:47.221Z,1.87
2018-11-25T23:15:16.539Z,1.87
2018-11-25T23:17:45.495Z,2.20
2018-11-25T23:20:14.450Z,2.07
2018-11-25T23:22:42.756Z,1.70
2018-11-25T23:25:11.749Z,1.77
2018-11-25T23:27:41.022Z,2.00
2018-11-25T23:30:09.787Z,1.60
2018-11-25T23:32:38.851Z,1.50
2018-11-25T23:35:12.044Z,1.70
2018-11-25T23:37:41.006Z,1.67
2018-11-25T23:40:10.220Z,1.50
2018-11-25T23:42:39.010Z,1.57
2018-11-25T23:45:09.523Z,1.83
2018-11-25T23:47:38.262Z,1.90
2018-11-25T23:50:08.391Z,1.47
2018-11-25T23:52:37.015Z,1.73
2018-11-25T23:55:10.599Z,1.80
2018-11-25T23:57:39.163Z,1.60
